GIA009 WADD-WIII
Flight info
| Callsign | GIA009 |
|---|---|
| Flight time | 1h 28m |
| Altitude | 36000 |
| Route | OKANG T4 FARIZ T6 KURUS |
| Aircraft | B738/M-SDE2E3FGHIRWXY/LB1 |
Departure
| Time | 2026-04-29 15:36 |
|---|---|
| Airport | Denpasar I Gusti Ngurah Rai International Airport (WADD) |
Arrival
| Time | 2026-04-29 17:04 |
|---|---|
| Airport | Soekarno-Hatta International Airport (WIII) |
| Time | Latitude | Longitude | Altitude | Speed | Heading |
|---|---|---|---|---|---|
| 2026-04-29 15:18 | -8.74568 | 115.16340 | 32 ft | 0 kts | 358° |
| 2026-04-29 15:30 | -8.74605 | 115.16343 | 32 ft | 4 kts | 354° |
| 2026-04-29 15:30 | -8.74632 | 115.16346 | 32 ft | 4 kts | 351° |
| 2026-04-29 15:30 | -8.74659 | 115.16351 | 32 ft | 4 kts | 344° |
| 2026-04-29 15:30 | -8.74683 | 115.16361 | 32 ft | 4 kts | 320° |
| 2026-04-29 15:31 | -8.74694 | 115.16375 | 32 ft | 1 kts | 268° |
| 2026-04-29 15:32 | -8.74694 | 115.16363 | 32 ft | 7 kts | 268° |
| 2026-04-29 15:33 | -8.74698 | 115.16260 | 32 ft | 21 kts | 267° |
| 2026-04-29 15:33 | -8.74705 | 115.16083 | 32 ft | 31 kts | 268° |
| 2026-04-29 15:33 | -8.74715 | 115.15838 | 32 ft | 37 kts | 267° |
| 2026-04-29 15:33 | -8.74724 | 115.15629 | 31 ft | 28 kts | 267° |
| 2026-04-29 15:34 | -8.74731 | 115.15463 | 31 ft | 14 kts | 268° |
| 2026-04-29 15:34 | -8.74789 | 115.15396 | 30 ft | 14 kts | 191° |
| 2026-04-29 15:34 | -8.74874 | 115.15398 | 27 ft | 8 kts | 162° |
| 2026-04-29 15:34 | -8.74903 | 115.15435 | 28 ft | 6 kts | 94° |
| 2026-04-29 15:35 | -8.74895 | 115.15476 | 28 ft | 7 kts | 84° |
| 2026-04-29 15:35 | -8.74883 | 115.15772 | 27 ft | 84 kts | 88° |
| 2026-04-29 15:35 | -8.74851 | 115.16632 | 44 ft | 156 kts | 91° |
| 2026-04-29 15:35 | -8.74805 | 115.17850 | 529 ft | 186 kts | 90° |
| 2026-04-29 15:36 | -8.74778 | 115.19219 | 1213 ft | 206 kts | 89° |
| 2026-04-29 15:36 | -8.74715 | 115.20776 | 1497 ft | 239 kts | 88° |
| 2026-04-29 15:36 | -8.74636 | 115.22514 | 2056 ft | 250 kts | 88° |
| 2026-04-29 15:36 | -8.74556 | 115.24279 | 2674 ft | 252 kts | 88° |
| 2026-04-29 15:37 | -8.74478 | 115.26041 | 3182 ft | 257 kts | 88° |
| 2026-04-29 15:37 | -8.74398 | 115.27857 | 3738 ft | 260 kts | 87° |
| 2026-04-29 15:37 | -8.73906 | 115.29603 | 4370 ft | 265 kts | 57° |
| 2026-04-29 15:37 | -8.72568 | 115.30890 | 5140 ft | 272 kts | 31° |
| 2026-04-29 15:38 | -8.70763 | 115.31499 | 6031 ft | 275 kts | 7° |
| 2026-04-29 15:38 | -8.68840 | 115.31281 | 6764 ft | 283 kts | 340° |
| 2026-04-29 15:38 | -8.67177 | 115.30209 | 7501 ft | 289 kts | 316° |
| 2026-04-29 15:38 | -8.66319 | 115.29174 | 8014 ft | 291 kts | 306° |
| 2026-04-29 15:39 | -8.64809 | 115.26863 | 8990 ft | 297 kts | 303° |
| 2026-04-29 15:39 | -8.63708 | 115.25083 | 9741 ft | 301 kts | 302° |
| 2026-04-29 15:39 | -8.62974 | 115.23887 | 10200 ft | 303 kts | 302° |
| 2026-04-29 15:39 | -8.61472 | 115.21453 | 11126 ft | 307 kts | 303° |
| 2026-04-29 15:40 | -8.60322 | 115.19621 | 11813 ft | 310 kts | 303° |
| 2026-04-29 15:40 | -8.59150 | 115.17777 | 12505 ft | 313 kts | 303° |
| 2026-04-29 15:40 | -8.57975 | 115.15943 | 13181 ft | 317 kts | 304° |
| 2026-04-29 15:40 | -8.57163 | 115.14682 | 13629 ft | 319 kts | 304° |
| 2026-04-29 15:41 | -8.55942 | 115.12789 | 14227 ft | 323 kts | 304° |
| 2026-04-29 15:41 | -8.54310 | 115.10264 | 15093 ft | 324 kts | 304° |
| 2026-04-29 15:41 | -8.53476 | 115.08974 | 15513 ft | 325 kts | 304° |
| 2026-04-29 15:41 | -8.51837 | 115.06442 | 16365 ft | 326 kts | 304° |
| 2026-04-29 15:42 | -8.51000 | 115.05149 | 16802 ft | 326 kts | 305° |
| 2026-04-29 15:42 | -8.49758 | 115.03231 | 17467 ft | 326 kts | 305° |
| 2026-04-29 15:42 | -8.48520 | 115.01319 | 18147 ft | 325 kts | 305° |
| 2026-04-29 15:42 | -8.47234 | 114.99489 | 18725 ft | 322 kts | 313° |
| 2026-04-29 15:43 | -8.45638 | 114.97924 | 19325 ft | 318 kts | 324° |
| 2026-04-29 15:43 | -8.43809 | 114.96699 | 19928 ft | 315 kts | 330° |
| 2026-04-29 15:43 | -8.41905 | 114.95558 | 20374 ft | 320 kts | 331° |
| 2026-04-29 15:43 | -8.39977 | 114.94406 | 20842 ft | 323 kts | 330° |
| 2026-04-29 15:44 | -8.38043 | 114.93235 | 21326 ft | 326 kts | 330° |
| 2026-04-29 15:44 | -8.36100 | 114.92047 | 21813 ft | 328 kts | 330° |
| 2026-04-29 15:44 | -8.34137 | 114.90852 | 22307 ft | 330 kts | 330° |
| 2026-04-29 15:44 | -8.32156 | 114.89673 | 22811 ft | 331 kts | 330° |
| 2026-04-29 15:45 | -8.30160 | 114.88492 | 23316 ft | 332 kts | 330° |
| 2026-04-29 15:45 | -8.28165 | 114.87313 | 23767 ft | 333 kts | 330° |
| 2026-04-29 15:45 | -8.26168 | 114.86132 | 24202 ft | 333 kts | 330° |
| 2026-04-29 15:45 | -8.24164 | 114.84946 | 24641 ft | 333 kts | 330° |
| 2026-04-29 15:46 | -8.22167 | 114.83762 | 25085 ft | 333 kts | 330° |
| 2026-04-29 15:46 | -8.20165 | 114.82575 | 25451 ft | 337 kts | 330° |
| 2026-04-29 15:46 | -8.18121 | 114.81364 | 25503 ft | 351 kts | 330° |
| 2026-04-29 15:46 | -8.15980 | 114.80095 | 25597 ft | 364 kts | 330° |
| 2026-04-29 15:47 | -8.13760 | 114.78779 | 25682 ft | 377 kts | 330° |
| 2026-04-29 15:47 | -8.11452 | 114.77410 | 25759 ft | 389 kts | 330° |
| 2026-04-29 15:47 | -8.09083 | 114.76006 | 25836 ft | 401 kts | 330° |
| 2026-04-29 15:47 | -8.06649 | 114.74563 | 25904 ft | 412 kts | 330° |
| 2026-04-29 15:48 | -8.04140 | 114.73076 | 25970 ft | 423 kts | 330° |
| 2026-04-29 15:48 | -8.01667 | 114.71390 | 26013 ft | 434 kts | 319° |
| 2026-04-29 15:48 | -7.99605 | 114.69137 | 26071 ft | 443 kts | 306° |
| 2026-04-29 15:48 | -7.98043 | 114.66425 | 26142 ft | 451 kts | 293° |
| 2026-04-29 15:49 | -7.96864 | 114.63479 | 26368 ft | 454 kts | 291° |
| 2026-04-29 15:49 | -7.95732 | 114.60504 | 26693 ft | 454 kts | 291° |
| 2026-04-29 15:49 | -7.94606 | 114.57532 | 27007 ft | 454 kts | 291° |
| 2026-04-29 15:49 | -7.93467 | 114.54552 | 27295 ft | 456 kts | 291° |
| 2026-04-29 15:50 | -7.92309 | 114.51559 | 27549 ft | 458 kts | 291° |
| 2026-04-29 15:50 | -7.91158 | 114.48612 | 27787 ft | 460 kts | 291° |
| 2026-04-29 15:50 | -7.89958 | 114.45559 | 28044 ft | 462 kts | 291° |
| 2026-04-29 15:50 | -7.88786 | 114.42586 | 28305 ft | 463 kts | 292° |
| 2026-04-29 15:51 | -7.87595 | 114.39567 | 28551 ft | 465 kts | 292° |
| 2026-04-29 15:51 | -7.86398 | 114.36533 | 28805 ft | 466 kts | 292° |
| 2026-04-29 15:51 | -7.85196 | 114.33486 | 29046 ft | 468 kts | 292° |
| 2026-04-29 15:51 | -7.83992 | 114.30433 | 29265 ft | 470 kts | 292° |
| 2026-04-29 15:52 | -7.82782 | 114.27365 | 29493 ft | 471 kts | 292° |
| 2026-04-29 15:52 | -7.81571 | 114.24293 | 29737 ft | 472 kts | 292° |
| 2026-04-29 15:52 | -7.80351 | 114.21199 | 29951 ft | 474 kts | 292° |
| 2026-04-29 15:52 | -7.79132 | 114.18111 | 30143 ft | 475 kts | 292° |
| 2026-04-29 15:53 | -7.77906 | 114.15003 | 30320 ft | 476 kts | 292° |
| 2026-04-29 15:53 | -7.76675 | 114.11886 | 30501 ft | 478 kts | 292° |
| 2026-04-29 15:53 | -7.75410 | 114.08786 | 30680 ft | 479 kts | 295° |
| 2026-04-29 15:53 | -7.73800 | 114.05851 | 30844 ft | 479 kts | 303° |
| 2026-04-29 15:54 | -7.71999 | 114.03072 | 31094 ft | 478 kts | 304° |
| 2026-04-29 15:54 | -7.70123 | 114.00256 | 31381 ft | 477 kts | 304° |
| 2026-04-29 15:54 | -7.68276 | 113.97498 | 31672 ft | 475 kts | 304° |
| 2026-04-29 15:54 | -7.66451 | 113.94760 | 31899 ft | 475 kts | 304° |
| 2026-04-29 15:55 | -7.64616 | 113.91986 | 32164 ft | 474 kts | 304° |
| 2026-04-29 15:55 | -7.62799 | 113.89220 | 32434 ft | 473 kts | 304° |
| 2026-04-29 15:55 | -7.60989 | 113.86453 | 32710 ft | 472 kts | 304° |
| 2026-04-29 15:55 | -7.59187 | 113.83690 | 32967 ft | 472 kts | 304° |
| 2026-04-29 15:56 | -7.57385 | 113.80925 | 33235 ft | 471 kts | 304° |
| 2026-04-29 15:56 | -7.55592 | 113.78173 | 33522 ft | 470 kts | 304° |
| 2026-04-29 15:56 | -7.53802 | 113.75426 | 33795 ft | 469 kts | 304° |
| 2026-04-29 15:56 | -7.52007 | 113.72674 | 34022 ft | 469 kts | 304° |
| 2026-04-29 15:57 | -7.50216 | 113.69929 | 34249 ft | 468 kts | 304° |
| 2026-04-29 15:57 | -7.48461 | 113.67240 | 34484 ft | 467 kts | 304° |
| 2026-04-29 15:57 | -7.46663 | 113.64485 | 34711 ft | 466 kts | 304° |
| 2026-04-29 15:57 | -7.44880 | 113.61755 | 34908 ft | 466 kts | 304° |
| 2026-04-29 15:58 | -7.43102 | 113.59032 | 35135 ft | 465 kts | 304° |
| 2026-04-29 15:58 | -7.41323 | 113.56309 | 35350 ft | 465 kts | 304° |
| 2026-04-29 15:58 | -7.39541 | 113.53581 | 35547 ft | 465 kts | 304° |
| 2026-04-29 15:58 | -7.37766 | 113.50864 | 35760 ft | 464 kts | 304° |
| 2026-04-29 15:59 | -7.35988 | 113.48144 | 35891 ft | 465 kts | 305° |
| 2026-04-29 15:59 | -7.32415 | 113.42678 | 35893 ft | 467 kts | 305° |
| 2026-04-29 16:00 | -7.28849 | 113.37225 | 35896 ft | 464 kts | 305° |
| 2026-04-29 16:00 | -7.25304 | 113.31804 | 35892 ft | 462 kts | 305° |
| 2026-04-29 16:01 | -7.21797 | 113.26444 | 35899 ft | 461 kts | 305° |
| 2026-04-29 16:01 | -7.18271 | 113.21058 | 35902 ft | 461 kts | 305° |
| 2026-04-29 16:02 | -7.14732 | 113.15654 | 35896 ft | 462 kts | 305° |
| 2026-04-29 16:02 | -7.11190 | 113.10247 | 35888 ft | 463 kts | 304° |
| 2026-04-29 16:03 | -7.07635 | 113.04821 | 35901 ft | 465 kts | 304° |
| 2026-04-29 16:03 | -7.04062 | 112.99369 | 35884 ft | 467 kts | 304° |
| 2026-04-29 16:04 | -7.00471 | 112.93893 | 35891 ft | 469 kts | 304° |
| 2026-04-29 16:04 | -6.96875 | 112.88409 | 35890 ft | 470 kts | 304° |
| 2026-04-29 16:05 | -6.93269 | 112.82913 | 35889 ft | 471 kts | 304° |
| 2026-04-29 16:05 | -6.89657 | 112.77410 | 35889 ft | 471 kts | 304° |
| 2026-04-29 16:06 | -6.86070 | 112.71945 | 35887 ft | 470 kts | 304° |
| 2026-04-29 16:06 | -6.82467 | 112.66458 | 35890 ft | 469 kts | 304° |
| 2026-04-29 16:07 | -6.78860 | 112.60968 | 35891 ft | 468 kts | 304° |
| 2026-04-29 16:07 | -6.75270 | 112.55505 | 35888 ft | 467 kts | 304° |
| 2026-04-29 16:08 | -6.71690 | 112.50058 | 35892 ft | 466 kts | 304° |
| 2026-04-29 16:08 | -6.68111 | 112.44616 | 35892 ft | 466 kts | 304° |
| 2026-04-29 16:09 | -6.64537 | 112.39183 | 35896 ft | 465 kts | 304° |
| 2026-04-29 16:09 | -6.60983 | 112.33780 | 35895 ft | 465 kts | 304° |
| 2026-04-29 16:10 | -6.57409 | 112.28350 | 35890 ft | 466 kts | 304° |
| 2026-04-29 16:10 | -6.53828 | 112.22911 | 35895 ft | 466 kts | 304° |
| 2026-04-29 16:11 | -6.50247 | 112.17473 | 35898 ft | 467 kts | 304° |
| 2026-04-29 16:11 | -6.46654 | 112.12019 | 35899 ft | 468 kts | 304° |
| 2026-04-29 16:12 | -6.43059 | 112.06563 | 35891 ft | 468 kts | 304° |
| 2026-04-29 16:12 | -6.39459 | 112.01101 | 35896 ft | 469 kts | 304° |
| 2026-04-29 16:13 | -6.35857 | 111.95637 | 35895 ft | 469 kts | 304° |
| 2026-04-29 16:13 | -6.32249 | 111.90166 | 35893 ft | 469 kts | 304° |
| 2026-04-29 16:14 | -6.28664 | 111.84731 | 35897 ft | 469 kts | 304° |
| 2026-04-29 16:14 | -6.25056 | 111.79263 | 35897 ft | 469 kts | 304° |
| 2026-04-29 16:15 | -6.21446 | 111.73790 | 35891 ft | 469 kts | 304° |
| 2026-04-29 16:15 | -6.17845 | 111.68327 | 35895 ft | 469 kts | 304° |
| 2026-04-29 16:16 | -6.14241 | 111.62862 | 35889 ft | 469 kts | 304° |
| 2026-04-29 16:16 | -6.10636 | 111.57397 | 35893 ft | 469 kts | 304° |
| 2026-04-29 16:17 | -6.07027 | 111.51927 | 35889 ft | 468 kts | 304° |
| 2026-04-29 16:17 | -6.03452 | 111.46510 | 35889 ft | 468 kts | 304° |
| 2026-04-29 16:18 | -5.99848 | 111.41051 | 35894 ft | 468 kts | 304° |
| 2026-04-29 16:18 | -5.96251 | 111.35602 | 35889 ft | 468 kts | 304° |
| 2026-04-29 16:19 | -5.92650 | 111.30149 | 35897 ft | 468 kts | 304° |
| 2026-04-29 16:19 | -5.89152 | 111.24644 | 35881 ft | 468 kts | 296° |
| 2026-04-29 16:19 | -5.88055 | 111.21573 | 35901 ft | 469 kts | 283° |
| 2026-04-29 16:20 | -5.87593 | 111.18335 | 35891 ft | 469 kts | 271° |
| 2026-04-29 16:20 | -5.88171 | 111.11818 | 35897 ft | 469 kts | 263° |
| 2026-04-29 16:21 | -5.88996 | 111.05351 | 35892 ft | 470 kts | 263° |
| 2026-04-29 16:21 | -5.89778 | 110.98829 | 35893 ft | 471 kts | 263° |
| 2026-04-29 16:22 | -5.90517 | 110.92281 | 35894 ft | 471 kts | 263° |
| 2026-04-29 16:22 | -5.91242 | 110.85734 | 35899 ft | 472 kts | 264° |
| 2026-04-29 16:23 | -5.91970 | 110.79170 | 35896 ft | 472 kts | 263° |
| 2026-04-29 16:23 | -5.92699 | 110.72609 | 35892 ft | 473 kts | 263° |
| 2026-04-29 16:24 | -5.93425 | 110.66069 | 35893 ft | 473 kts | 263° |
| 2026-04-29 16:24 | -5.94153 | 110.59508 | 35897 ft | 473 kts | 263° |
| 2026-04-29 16:25 | -5.94882 | 110.52934 | 35895 ft | 473 kts | 264° |
| 2026-04-29 16:25 | -5.95608 | 110.46377 | 35898 ft | 471 kts | 264° |
| 2026-04-29 16:26 | -5.96329 | 110.39849 | 35901 ft | 470 kts | 264° |
| 2026-04-29 16:26 | -5.96657 | 110.33291 | 35900 ft | 469 kts | 270° |
| 2026-04-29 16:27 | -5.96597 | 110.26733 | 35902 ft | 470 kts | 271° |
| 2026-04-29 16:27 | -5.96532 | 110.21282 | 35897 ft | 470 kts | 271° |
| 2026-04-29 16:28 | -5.96497 | 110.14712 | 35895 ft | 470 kts | 270° |
| 2026-04-29 16:28 | -5.96490 | 110.07082 | 35900 ft | 470 kts | 270° |
| 2026-04-29 16:29 | -5.96490 | 110.01578 | 35901 ft | 470 kts | 270° |
| 2026-04-29 16:29 | -5.96489 | 109.95059 | 35896 ft | 470 kts | 270° |
| 2026-04-29 16:30 | -5.96485 | 109.88486 | 35898 ft | 470 kts | 270° |
| 2026-04-29 16:30 | -5.96479 | 109.81920 | 35900 ft | 470 kts | 270° |
| 2026-04-29 16:31 | -5.96473 | 109.75347 | 35898 ft | 470 kts | 270° |
| 2026-04-29 16:31 | -5.96466 | 109.68784 | 35900 ft | 470 kts | 270° |
| 2026-04-29 16:32 | -5.96459 | 109.62217 | 35898 ft | 470 kts | 270° |
| 2026-04-29 16:32 | -5.96450 | 109.55645 | 35897 ft | 470 kts | 270° |
| 2026-04-29 16:33 | -5.96436 | 109.45839 | 35899 ft | 470 kts | 270° |
| 2026-04-29 16:33 | -5.96426 | 109.39272 | 35899 ft | 470 kts | 270° |
| 2026-04-29 16:34 | -5.96414 | 109.32694 | 35899 ft | 470 kts | 270° |
| 2026-04-29 16:34 | -5.96402 | 109.26119 | 35900 ft | 470 kts | 270° |
| 2026-04-29 16:35 | -5.96390 | 109.19544 | 35896 ft | 470 kts | 270° |
| 2026-04-29 16:35 | -5.96376 | 109.12975 | 35899 ft | 470 kts | 270° |
| 2026-04-29 16:36 | -5.96362 | 109.06446 | 35899 ft | 470 kts | 270° |
| 2026-04-29 16:36 | -5.96347 | 108.99827 | 35897 ft | 471 kts | 270° |
| 2026-04-29 16:37 | -5.96331 | 108.93291 | 35901 ft | 471 kts | 270° |
| 2026-04-29 16:37 | -5.96317 | 108.87789 | 35905 ft | 471 kts | 270° |
| 2026-04-29 16:38 | -5.96297 | 108.80144 | 35901 ft | 471 kts | 270° |
| 2026-04-29 16:38 | -5.96279 | 108.73573 | 35902 ft | 471 kts | 270° |
| 2026-04-29 16:39 | -5.96260 | 108.67000 | 35901 ft | 470 kts | 270° |
| 2026-04-29 16:39 | -5.96240 | 108.60417 | 35755 ft | 473 kts | 270° |
| 2026-04-29 16:40 | -5.96230 | 108.57104 | 35221 ft | 472 kts | 270° |
| 2026-04-29 16:40 | -5.96220 | 108.53810 | 34699 ft | 470 kts | 270° |
| 2026-04-29 16:40 | -5.96209 | 108.50522 | 34146 ft | 470 kts | 271° |
| 2026-04-29 16:40 | -5.96199 | 108.47249 | 33685 ft | 466 kts | 270° |
| 2026-04-29 16:41 | -5.96195 | 108.44006 | 33178 ft | 463 kts | 270° |
| 2026-04-29 16:41 | -5.96197 | 108.40777 | 32679 ft | 461 kts | 270° |
| 2026-04-29 16:41 | -5.96201 | 108.37570 | 32194 ft | 458 kts | 270° |
| 2026-04-29 16:41 | -5.96204 | 108.34386 | 31717 ft | 455 kts | 270° |
| 2026-04-29 16:42 | -5.96208 | 108.31211 | 31246 ft | 453 kts | 270° |
| 2026-04-29 16:42 | -5.96210 | 108.28058 | 30777 ft | 447 kts | 270° |
| 2026-04-29 16:42 | -5.96212 | 108.24977 | 30311 ft | 438 kts | 270° |
| 2026-04-29 16:42 | -5.96213 | 108.21944 | 29819 ft | 430 kts | 270° |
| 2026-04-29 16:43 | -5.96213 | 108.18965 | 29187 ft | 424 kts | 270° |
| 2026-04-29 16:43 | -5.96214 | 108.16028 | 28542 ft | 418 kts | 270° |
| 2026-04-29 16:43 | -5.96214 | 108.13110 | 27911 ft | 413 kts | 270° |
| 2026-04-29 16:43 | -5.96214 | 108.10277 | 27332 ft | 408 kts | 270° |
| 2026-04-29 16:44 | -5.96214 | 108.07406 | 26771 ft | 402 kts | 270° |
| 2026-04-29 16:44 | -5.96214 | 108.04622 | 26224 ft | 397 kts | 269° |
| 2026-04-29 16:44 | -5.96213 | 108.01865 | 25691 ft | 392 kts | 269° |
| 2026-04-29 16:44 | -5.96213 | 107.99179 | 25174 ft | 387 kts | 269° |
| 2026-04-29 16:45 | -5.96212 | 107.96491 | 24662 ft | 383 kts | 269° |
| 2026-04-29 16:45 | -5.96212 | 107.93822 | 24160 ft | 379 kts | 269° |
| 2026-04-29 16:45 | -5.96211 | 107.91188 | 23699 ft | 378 kts | 269° |
| 2026-04-29 16:45 | -5.96210 | 107.88535 | 23182 ft | 379 kts | 269° |
| 2026-04-29 16:46 | -5.96210 | 107.85901 | 22611 ft | 374 kts | 269° |
| 2026-04-29 16:46 | -5.96208 | 107.83304 | 22058 ft | 370 kts | 269° |
| 2026-04-29 16:46 | -5.96207 | 107.80734 | 21515 ft | 366 kts | 269° |
| 2026-04-29 16:46 | -5.96206 | 107.78183 | 20984 ft | 362 kts | 269° |
| 2026-04-29 16:47 | -5.96204 | 107.75669 | 20480 ft | 360 kts | 269° |
| 2026-04-29 16:47 | -5.96203 | 107.73139 | 20027 ft | 362 kts | 269° |
| 2026-04-29 16:47 | -5.96202 | 107.70607 | 19574 ft | 364 kts | 269° |
| 2026-04-29 16:47 | -5.96200 | 107.68070 | 19115 ft | 361 kts | 269° |
| 2026-04-29 16:48 | -5.96198 | 107.65567 | 18664 ft | 356 kts | 269° |
| 2026-04-29 16:48 | -5.96196 | 107.63098 | 18219 ft | 351 kts | 269° |
| 2026-04-29 16:48 | -5.96194 | 107.60697 | 17724 ft | 347 kts | 269° |
| 2026-04-29 16:48 | -5.96192 | 107.58286 | 17226 ft | 345 kts | 269° |
| 2026-04-29 16:49 | -5.96190 | 107.55889 | 16730 ft | 341 kts | 269° |
| 2026-04-29 16:49 | -5.96187 | 107.53528 | 16241 ft | 337 kts | 269° |
| 2026-04-29 16:49 | -5.96185 | 107.51182 | 15758 ft | 333 kts | 269° |
| 2026-04-29 16:49 | -5.96183 | 107.48868 | 15290 ft | 330 kts | 269° |
| 2026-04-29 16:50 | -5.96180 | 107.46573 | 14825 ft | 326 kts | 269° |
| 2026-04-29 16:50 | -5.96178 | 107.44307 | 14374 ft | 323 kts | 269° |
| 2026-04-29 16:50 | -5.96175 | 107.42059 | 13930 ft | 320 kts | 269° |
| 2026-04-29 16:50 | -5.96172 | 107.39835 | 13476 ft | 317 kts | 269° |
| 2026-04-29 16:51 | -5.96170 | 107.37637 | 13001 ft | 313 kts | 269° |
| 2026-04-29 16:51 | -5.96167 | 107.35457 | 12523 ft | 310 kts | 269° |
| 2026-04-29 16:51 | -5.96164 | 107.33303 | 12068 ft | 307 kts | 269° |
| 2026-04-29 16:51 | -5.96161 | 107.31166 | 11614 ft | 304 kts | 269° |
| 2026-04-29 16:52 | -5.96158 | 107.29054 | 11189 ft | 301 kts | 269° |
| 2026-04-29 16:52 | -5.96155 | 107.26961 | 10764 ft | 298 kts | 269° |
| 2026-04-29 16:52 | -5.96152 | 107.24895 | 10351 ft | 295 kts | 269° |
| 2026-04-29 16:52 | -5.96149 | 107.22873 | 9941 ft | 292 kts | 269° |
| 2026-04-29 16:53 | -5.96146 | 107.20848 | 9513 ft | 289 kts | 269° |
| 2026-04-29 16:53 | -5.96143 | 107.18841 | 9061 ft | 287 kts | 269° |
| 2026-04-29 16:53 | -5.96140 | 107.16849 | 8653 ft | 283 kts | 269° |
| 2026-04-29 16:53 | -5.96136 | 107.14880 | 8293 ft | 279 kts | 269° |
| 2026-04-29 16:54 | -5.96133 | 107.12972 | 7948 ft | 269 kts | 269° |
| 2026-04-29 16:54 | -5.96130 | 107.11119 | 7530 ft | 262 kts | 269° |
| 2026-04-29 16:54 | -5.96126 | 107.09318 | 7169 ft | 254 kts | 269° |
| 2026-04-29 16:54 | -5.96123 | 107.07569 | 6801 ft | 247 kts | 269° |
| 2026-04-29 16:55 | -5.96120 | 107.05864 | 6458 ft | 241 kts | 269° |
| 2026-04-29 16:55 | -5.96118 | 107.04193 | 6123 ft | 238 kts | 269° |
| 2026-04-29 16:55 | -5.96115 | 107.02537 | 5758 ft | 236 kts | 269° |
| 2026-04-29 16:55 | -5.96112 | 107.00901 | 5428 ft | 233 kts | 269° |
| 2026-04-29 16:56 | -5.96109 | 106.99278 | 5067 ft | 231 kts | 269° |
| 2026-04-29 16:56 | -5.96106 | 106.97669 | 4715 ft | 230 kts | 269° |
| 2026-04-29 16:56 | -5.96103 | 106.96067 | 4345 ft | 229 kts | 270° |
| 2026-04-29 16:56 | -5.96099 | 106.94485 | 3986 ft | 223 kts | 269° |
| 2026-04-29 16:57 | -5.96096 | 106.92950 | 3622 ft | 217 kts | 269° |
| 2026-04-29 16:57 | -5.96093 | 106.91455 | 3264 ft | 213 kts | 269° |
| 2026-04-29 16:57 | -5.96134 | 106.89983 | 3009 ft | 205 kts | 257° |
| 2026-04-29 16:57 | -5.96752 | 106.88789 | 2986 ft | 185 kts | 226° |
| 2026-04-29 16:58 | -5.97718 | 106.87957 | 2994 ft | 182 kts | 218° |
| 2026-04-29 16:58 | -5.98685 | 106.87162 | 2988 ft | 183 kts | 219° |
| 2026-04-29 16:58 | -5.99680 | 106.86342 | 3004 ft | 183 kts | 219° |
| 2026-04-29 16:58 | -6.00653 | 106.85540 | 2993 ft | 183 kts | 219° |
| 2026-04-29 16:59 | -6.01640 | 106.84727 | 2987 ft | 183 kts | 219° |
| 2026-04-29 16:59 | -6.02628 | 106.83914 | 2983 ft | 183 kts | 219° |
| 2026-04-29 16:59 | -6.03613 | 106.83104 | 2989 ft | 183 kts | 219° |
| 2026-04-29 16:59 | -6.04537 | 106.82235 | 2976 ft | 182 kts | 237° |
| 2026-04-29 17:00 | -6.05106 | 106.81141 | 2914 ft | 174 kts | 242° |
| 2026-04-29 17:00 | -6.05629 | 106.80060 | 2762 ft | 170 kts | 245° |
| 2026-04-29 17:00 | -6.06093 | 106.78969 | 2519 ft | 169 kts | 247° |
| 2026-04-29 17:00 | -6.06535 | 106.77871 | 2303 ft | 170 kts | 248° |
| 2026-04-29 17:01 | -6.06974 | 106.76769 | 2084 ft | 170 kts | 248° |
| 2026-04-29 17:01 | -6.07413 | 106.75665 | 1861 ft | 170 kts | 248° |
| 2026-04-29 17:01 | -6.07851 | 106.74564 | 1654 ft | 170 kts | 249° |
| 2026-04-29 17:01 | -6.08287 | 106.73466 | 1430 ft | 169 kts | 249° |
| 2026-04-29 17:02 | -6.08722 | 106.72372 | 1215 ft | 169 kts | 248° |
| 2026-04-29 17:02 | -6.09158 | 106.71277 | 1000 ft | 168 kts | 248° |
| 2026-04-29 17:02 | -6.09582 | 106.70209 | 786 ft | 165 kts | 248° |
| 2026-04-29 17:02 | -6.10007 | 106.69141 | 571 ft | 163 kts | 248° |
| 2026-04-29 17:03 | -6.10432 | 106.68083 | 382 ft | 163 kts | 248° |
| 2026-04-29 17:03 | -6.10840 | 106.67054 | 135 ft | 152 kts | 249° |
| 2026-04-29 17:03 | -6.11199 | 106.66122 | 39 ft | 130 kts | 248° |
| 2026-04-29 17:03 | -6.11499 | 106.65393 | 37 ft | 96 kts | 248° |
| 2026-04-29 17:04 | -6.11702 | 106.64881 | 41 ft | 54 kts | 248° |
| 2026-04-29 17:04 | -6.11819 | 106.64715 | 41 ft | 26 kts | 224° |
| 2026-04-29 17:04 | -6.11900 | 106.64653 | 40 ft | 1 kts | 206° |
| 2026-04-29 17:04 | -6.11915 | 106.64647 | 40 ft | 3 kts | 201° |
| 2026-04-29 17:05 | -6.11940 | 106.64648 | 39 ft | 4 kts | 161° |
| 2026-04-29 17:05 | -6.11963 | 106.64673 | 38 ft | 6 kts | 112° |
| 2026-04-29 17:05 | -6.11958 | 106.64727 | 38 ft | 9 kts | 72° |
| 2026-04-29 17:05 | -6.11932 | 106.64794 | 38 ft | 12 kts | 68° |
| 2026-04-29 17:06 | -6.11899 | 106.64879 | 36 ft | 14 kts | 69° |
| 2026-04-29 17:06 | -6.11860 | 106.64977 | 38 ft | 16 kts | 68° |
| 2026-04-29 17:06 | -6.11816 | 106.65088 | 38 ft | 18 kts | 68° |
| 2026-04-29 17:06 | -6.11766 | 106.65211 | 36 ft | 20 kts | 67° |
| 2026-04-29 17:07 | -6.11710 | 106.65345 | 35 ft | 21 kts | 69° |
| 2026-04-29 17:07 | -6.11675 | 106.65440 | 38 ft | 23 kts | 68° |
| 2026-04-29 17:07 | -6.11594 | 106.65645 | 35 ft | 24 kts | 67° |
| 2026-04-29 17:07 | -6.11532 | 106.65797 | 36 ft | 23 kts | 68° |
| 2026-04-29 17:08 | -6.11527 | 106.65901 | 37 ft | 13 kts | 135° |
| 2026-04-29 17:08 | -6.11608 | 106.65946 | 36 ft | 14 kts | 157° |
| 2026-04-29 17:08 | -6.11706 | 106.65985 | 37 ft | 16 kts | 158° |
| 2026-04-29 17:08 | -6.11794 | 106.66036 | 36 ft | 14 kts | 122° |
| 2026-04-29 17:09 | -6.11781 | 106.66118 | 36 ft | 13 kts | 69° |
| 2026-04-29 17:09 | -6.11773 | 106.66138 | 37 ft | 0 kts | 68° |
| 2026-04-29 17:09 | -6.11773 | 106.66139 | 37 ft | 1 kts | 68° |
| 2026-04-29 17:09 | -6.11769 | 106.66147 | 36 ft | 0 kts | 68° |
| 2026-04-29 17:10 | -6.11768 | 106.66152 | 35 ft | 2 kts | 68° |
| 2026-04-29 17:11 | -6.11758 | 106.66176 | 37 ft | 4 kts | 68° |
| 2026-04-29 17:11 | -6.11776 | 106.66204 | 36 ft | 7 kts | 145° |
| 2026-04-29 17:11 | -6.11810 | 106.66221 | 37 ft | 5 kts | 157° |
| 2026-04-29 17:11 | -6.11829 | 106.66228 | 37 ft | 3 kts | 158° |
| 2026-04-29 17:12 | -6.11838 | 106.66232 | 37 ft | 0 kts | 158° |